createdAt,value
2018-06-03T00:01:39.504Z,87.29
2018-06-03T00:04:07.995Z,86.65
2018-06-03T00:06:36.535Z,85.25
2018-06-03T00:09:05.788Z,86.17
2018-06-03T00:11:34.283Z,85.84
2018-06-03T00:14:02.788Z,85.80
2018-06-03T00:16:31.355Z,86.51
2018-06-03T00:18:59.802Z,86.72
2018-06-03T00:21:51.423Z,87.09
2018-06-03T00:24:19.976Z,86.24
2018-06-03T00:26:48.487Z,86.18
2018-06-03T00:29:17.011Z,85.68
2018-06-03T00:31:45.534Z,85.64
2018-06-03T00:34:14.077Z,85.71
2018-06-03T00:36:47.852Z,86.30
2018-06-03T00:39:16.505Z,86.31
2018-06-03T00:41:45.011Z,87.56
2018-06-03T00:44:13.500Z,87.37
2018-06-03T00:46:41.996Z,87.44
2018-06-03T00:49:10.556Z,87.16
2018-06-03T00:51:39.052Z,86.55
2018-06-03T00:54:07.832Z,87.10
2018-06-03T00:56:47.461Z,86.34
2018-06-03T00:59:15.949Z,85.47
2018-06-03T01:01:44.392Z,85.69
2018-06-03T01:04:12.892Z,86.29
2018-06-03T01:06:41.535Z,86.78
2018-06-03T01:09:10.068Z,85.51
2018-06-03T01:11:38.756Z,85.73
2018-06-03T01:14:10.776Z,84.81
2018-06-03T01:16:39.392Z,86.07
2018-06-03T01:19:07.825Z,86.81
2018-06-03T01:21:36.352Z,86.64
2018-06-03T01:24:04.876Z,87.01
2018-06-03T01:26:33.447Z,86.67
2018-06-03T01:29:02.196Z,86.85
2018-06-03T01:31:30.755Z,87.65
2018-06-03T01:33:59.220Z,87.86
2018-06-03T01:36:27.744Z,87.43
2018-06-03T01:38:56.207Z,87.38
2018-06-03T01:41:24.755Z,88.10
2018-06-03T01:43:53.291Z,88.49
2018-06-03T01:46:21.807Z,87.80
2018-06-03T01:48:50.266Z,87.86
2018-06-03T01:51:18.789Z,88.76
2018-06-03T01:53:47.259Z,88.03
2018-06-03T01:56:15.723Z,88.17
2018-06-03T01:58:44.200Z,87.39
2018-06-03T02:01:12.701Z,88.53
2018-06-03T02:03:41.147Z,88.38
2018-06-03T02:06:09.635Z,89.29
2018-06-03T02:08:38.100Z,88.17
2018-06-03T02:11:06.664Z,89.00
2018-06-03T02:13:35.204Z,87.90
2018-06-03T02:16:04.012Z,88.70
2018-06-03T02:18:32.644Z,87.81
2018-06-03T02:21:01.064Z,87.69
2018-06-03T02:23:29.708Z,87.83
2018-06-03T02:25:58.156Z,87.67
2018-06-03T02:28:26.712Z,88.71
2018-06-03T02:30:55.152Z,88.32
2018-06-03T02:33:23.596Z,86.91
2018-06-03T02:35:52.251Z,87.43
2018-06-03T02:38:20.707Z,87.54
2018-06-03T02:40:49.141Z,87.40
2018-06-03T02:43:17.640Z,88.11
2018-06-03T02:45:46.173Z,86.66
2018-06-03T02:48:15.135Z,87.85
2018-06-03T02:50:43.587Z,86.45
2018-06-03T02:53:12.064Z,86.38
2018-06-03T02:55:40.608Z,87.41
2018-06-03T02:58:09.024Z,87.65
2018-06-03T03:00:37.704Z,88.95
2018-06-03T03:03:06.148Z,88.68
2018-06-03T03:05:34.583Z,87.33
2018-06-03T03:08:03.037Z,87.72
2018-06-03T03:10:31.540Z,88.14
2018-06-03T03:13:00.280Z,88.65
2018-06-03T03:15:28.811Z,88.59
2018-06-03T03:17:57.295Z,87.73
2018-06-03T03:20:25.744Z,87.33
2018-06-03T03:22:54.187Z,88.38
2018-06-03T03:25:22.709Z,88.97
2018-06-03T03:27:51.176Z,88.87
2018-06-03T03:30:19.679Z,88.29
2018-06-03T03:32:48.174Z,87.73
2018-06-03T03:35:16.747Z,88.17
2018-06-03T03:37:45.628Z,88.51
2018-06-03T03:40:14.207Z,88.02
2018-06-03T03:42:42.641Z,88.56
2018-06-03T03:45:11.172Z,87.63
2018-06-03T03:47:39.627Z,87.65
2018-06-03T03:50:08.099Z,87.32
2018-06-03T03:52:36.543Z,87.90
2018-06-03T03:55:05.220Z,88.70
2018-06-03T03:57:33.715Z,89.14
2018-06-03T04:00:02.252Z,89.43
2018-06-03T04:02:30.726Z,89.04
2018-06-03T04:04:59.223Z,88.94
2018-06-03T04:07:27.966Z,89.06
2018-06-03T04:09:56.543Z,88.25
2018-06-03T04:12:24.992Z,88.19
2018-06-03T04:14:53.536Z,88.38
2018-06-03T04:17:22.063Z,88.64
2018-06-03T04:19:50.639Z,88.66
2018-06-03T04:22:19.167Z,89.60
2018-06-03T04:24:47.651Z,89.49
2018-06-03T04:27:16.184Z,89.24
2018-06-03T04:29:44.649Z,89.12
2018-06-03T04:32:13.424Z,86.48
2018-06-03T04:34:41.936Z,83.92
2018-06-03T04:37:10.451Z,81.27
2018-06-03T04:39:38.947Z,78.48
2018-06-03T04:42:07.439Z,76.52
2018-06-03T04:44:36.199Z,75.71
2018-06-03T04:47:04.659Z,74.50
2018-06-03T04:49:33.099Z,74.31
2018-06-03T04:52:01.634Z,72.39
2018-06-03T04:54:30.136Z,72.58
2018-06-03T04:56:58.606Z,73.33
2018-06-03T04:59:27.073Z,71.27
2018-06-03T05:01:55.583Z,70.92
2018-06-03T05:04:24.119Z,70.46
2018-06-03T05:06:52.671Z,70.77
2018-06-03T05:09:21.344Z,70.15
2018-06-03T05:11:49.796Z,71.23
2018-06-03T05:14:18.339Z,69.86
2018-06-03T05:16:46.849Z,68.67
2018-06-03T05:19:15.393Z,69.91
2018-06-03T05:21:43.899Z,67.67
2018-06-03T05:24:12.371Z,68.32
2018-06-03T05:26:41.003Z,67.98
2018-06-03T05:29:09.524Z,67.19
2018-06-03T05:31:38.035Z,66.72
2018-06-03T05:34:06.735Z,66.87
2018-06-03T05:36:35.223Z,64.42
2018-06-03T05:39:04.598Z,65.42
2018-06-03T05:41:33.139Z,65.53
2018-06-03T05:44:01.599Z,64.03
2018-06-03T05:46:30.131Z,64.18
2018-06-03T05:48:58.656Z,65.24
2018-06-03T05:51:27.274Z,64.78
2018-06-03T05:53:55.783Z,65.66
2018-06-03T05:56:24.295Z,65.18
2018-06-03T05:58:52.727Z,63.57
2018-06-03T06:01:21.176Z,64.62
2018-06-03T06:03:49.956Z,65.84
2018-06-03T06:06:18.596Z,64.63
2018-06-03T06:08:47.063Z,64.62
2018-06-03T06:11:15.591Z,63.67
2018-06-03T06:13:44.110Z,63.36
2018-06-03T06:16:12.736Z,63.99
2018-06-03T06:18:41.344Z,60.52
2018-06-03T06:21:09.872Z,63.67
2018-06-03T06:23:38.331Z,64.27
2018-06-03T06:26:06.935Z,64.45
2018-06-03T06:28:35.548Z,63.64
2018-06-03T06:31:03.976Z,64.07
2018-06-03T06:33:32.431Z,65.22
2018-06-03T06:36:00.945Z,63.46
2018-06-03T06:38:29.405Z,63.40
2018-06-03T06:40:57.880Z,63.11
2018-06-03T06:43:26.388Z,63.97
2018-06-03T06:45:54.995Z,64.40
2018-06-03T06:48:23.496Z,64.32
2018-06-03T06:50:51.976Z,63.69
2018-06-03T06:53:20.499Z,62.95
2018-06-03T06:55:48.969Z,63.89
2018-06-03T06:58:17.655Z,63.65
2018-06-03T07:00:46.193Z,63.75
2018-06-03T07:03:14.673Z,64.63
2018-06-03T07:05:43.419Z,64.84
2018-06-03T07:08:11.867Z,64.58
2018-06-03T07:10:40.308Z,63.24
2018-06-03T07:13:08.878Z,63.28
2018-06-03T07:15:37.332Z,62.96
2018-06-03T07:18:05.845Z,63.64
2018-06-03T07:20:34.327Z,63.27
2018-06-03T07:23:02.815Z,62.74
2018-06-03T07:25:31.333Z,64.53
2018-06-03T07:27:59.811Z,65.52
2018-06-03T07:30:28.503Z,64.11
2018-06-03T07:32:57.013Z,64.16
2018-06-03T07:35:25.591Z,63.76
2018-06-03T07:37:54.064Z,62.58
2018-06-03T07:40:22.471Z,62.57
2018-06-03T07:42:51.347Z,62.40
2018-06-03T07:45:19.900Z,61.21
2018-06-03T07:47:48.347Z,61.52
2018-06-03T07:50:16.889Z,59.04
2018-06-03T07:52:45.473Z,60.51
2018-06-03T07:55:14.228Z,61.20
2018-06-03T07:57:42.660Z,61.48
2018-06-03T08:00:11.195Z,59.51
2018-06-03T08:02:39.663Z,58.96
2018-06-03T08:05:08.173Z,58.39
2018-06-03T08:07:36.804Z,56.64
2018-06-03T08:10:05.472Z,56.73
2018-06-03T08:12:34.004Z,55.91
2018-06-03T08:15:02.444Z,56.00
2018-06-03T08:17:31.011Z,57.02
2018-06-03T08:19:59.894Z,57.96
2018-06-03T08:22:28.535Z,58.24
2018-06-03T08:24:56.960Z,57.35
2018-06-03T08:27:25.524Z,58.23
2018-06-03T08:29:54.033Z,57.44
2018-06-03T08:32:22.689Z,59.17
2018-06-03T08:34:51.170Z,57.07
2018-06-03T08:37:19.679Z,55.82
2018-06-03T08:39:48.217Z,54.29
2018-06-03T08:42:16.700Z,56.83
2018-06-03T08:44:45.436Z,55.65
2018-06-03T08:47:13.968Z,55.38
2018-06-03T08:49:42.721Z,55.94
2018-06-03T08:52:11.696Z,55.36
2018-06-03T08:54:40.135Z,55.09
2018-06-03T08:57:08.673Z,55.04
2018-06-03T08:59:37.165Z,56.55
2018-06-03T09:02:05.695Z,55.65
2018-06-03T09:04:34.172Z,56.59
2018-06-03T09:07:02.632Z,56.66
2018-06-03T09:09:31.560Z,57.38
2018-06-03T09:12:00.137Z,55.90
2018-06-03T09:14:28.636Z,57.56
2018-06-03T09:16:57.067Z,58.20
2018-06-03T09:19:25.566Z,57.65
2018-06-03T09:21:54.433Z,55.18
2018-06-03T09:24:23.115Z,54.82
2018-06-03T09:26:51.556Z,53.33
2018-06-03T09:29:20.119Z,53.97
2018-06-03T09:31:48.592Z,53.27
2018-06-03T09:34:17.093Z,54.03
2018-06-03T09:36:45.584Z,52.37
2018-06-03T09:39:14.144Z,53.61
2018-06-03T09:41:42.683Z,53.33
2018-06-03T09:44:11.299Z,53.73
2018-06-03T09:46:39.777Z,53.63
2018-06-03T09:49:08.188Z,51.59
2018-06-03T09:51:36.672Z,51.36
2018-06-03T09:54:05.344Z,52.67
2018-06-03T09:56:33.793Z,51.52
2018-06-03T09:59:02.287Z,49.67
2018-06-03T10:01:30.820Z,51.05
2018-06-03T10:03:59.244Z,51.17
2018-06-03T10:06:27.724Z,49.86
2018-06-03T10:08:56.208Z,50.12
2018-06-03T10:11:24.696Z,47.89
2018-06-03T10:13:53.574Z,46.64
2018-06-03T10:16:22.045Z,46.98
2018-06-03T10:18:50.581Z,47.65
2018-06-03T10:21:19.104Z,46.58
2018-06-03T10:23:47.567Z,46.17
2018-06-03T10:26:16.263Z,46.65
2018-06-03T10:28:44.775Z,46.71
2018-06-03T10:31:13.310Z,45.77
2018-06-03T10:33:41.779Z,45.53
2018-06-03T10:36:10.267Z,47.56
2018-06-03T10:38:39.024Z,45.89
2018-06-03T10:41:07.560Z,44.85
2018-06-03T10:43:36.040Z,46.25
2018-06-03T10:46:04.566Z,45.58
2018-06-03T10:48:33.024Z,45.24
2018-06-03T10:51:01.923Z,44.93
2018-06-03T10:53:30.444Z,44.44
2018-06-03T10:55:58.880Z,46.16
2018-06-03T10:58:27.459Z,44.20
2018-06-03T11:00:55.935Z,44.63
2018-06-03T11:03:24.783Z,46.34
2018-06-03T11:05:53.331Z,45.75
2018-06-03T11:08:21.742Z,44.18
2018-06-03T11:10:50.219Z,46.13
2018-06-03T11:13:18.700Z,45.21
2018-06-03T11:15:47.184Z,45.07
2018-06-03T11:18:15.672Z,43.76
2018-06-03T11:20:44.164Z,43.42
2018-06-03T11:23:12.691Z,44.49
2018-06-03T11:25:41.156Z,44.08
2018-06-03T11:28:10.557Z,43.81
2018-06-03T11:30:39.075Z,43.54
2018-06-03T11:33:07.495Z,41.62
2018-06-03T11:35:36.078Z,42.62
2018-06-03T11:38:04.548Z,41.99
2018-06-03T11:40:33.317Z,41.30
2018-06-03T11:43:01.762Z,41.99
2018-06-03T11:45:30.220Z,43.29
2018-06-03T11:47:58.879Z,43.81
2018-06-03T11:50:27.445Z,42.86
2018-06-03T11:52:55.988Z,45.44
2018-06-03T11:55:24.546Z,47.70
2018-06-03T11:58:35.475Z,46.63
2018-06-03T12:01:03.971Z,47.68
2018-06-03T12:03:32.622Z,46.87
2018-06-03T12:06:01.131Z,46.30
2018-06-03T12:08:29.580Z,45.76
2018-06-03T12:10:58.355Z,47.58
2018-06-03T12:13:26.888Z,45.66
2018-06-03T12:15:55.392Z,46.38
2018-06-03T12:18:23.880Z,43.87
2018-06-03T12:20:52.335Z,44.84
2018-06-03T12:23:21.338Z,45.96
2018-06-03T12:25:49.868Z,47.51
2018-06-03T12:28:18.321Z,47.16
2018-06-03T12:30:46.881Z,46.95
2018-06-03T12:33:15.331Z,46.24
2018-06-03T12:35:44.216Z,45.41
2018-06-03T12:38:12.768Z,46.42
2018-06-03T12:40:41.239Z,46.74
2018-06-03T12:43:09.743Z,44.00
2018-06-03T12:45:38.208Z,45.50
2018-06-03T12:48:06.973Z,43.50
2018-06-03T12:50:35.432Z,44.35
2018-06-03T12:53:04.116Z,43.19
2018-06-03T12:55:32.612Z,43.13
2018-06-03T12:58:01.109Z,42.56
2018-06-03T13:00:29.549Z,42.24
2018-06-03T13:02:57.996Z,42.96
2018-06-03T13:05:26.656Z,41.19
2018-06-03T13:07:55.199Z,43.44
2018-06-03T13:10:23.687Z,42.84
2018-06-03T13:12:52.200Z,42.25
2018-06-03T13:15:20.672Z,42.56
2018-06-03T13:17:49.195Z,41.17
2018-06-03T13:20:17.638Z,41.22
2018-06-03T13:22:46.163Z,42.44
2018-06-03T13:25:14.616Z,40.92
2018-06-03T13:27:43.132Z,42.17
2018-06-03T13:30:11.612Z,43.25
2018-06-03T13:32:40.119Z,42.32
2018-06-03T13:35:08.659Z,43.36
2018-06-03T13:37:37.127Z,42.23
2018-06-03T13:40:05.687Z,42.88
2018-06-03T13:42:34.211Z,44.23
2018-06-03T13:45:02.717Z,45.41
2018-06-03T13:47:31.128Z,44.42
2018-06-03T13:49:59.747Z,44.71
2018-06-03T13:52:28.292Z,42.84
2018-06-03T13:54:56.777Z,42.94
2018-06-03T13:57:25.215Z,42.99
2018-06-03T13:59:53.695Z,42.76
2018-06-03T14:02:22.541Z,44.52
2018-06-03T14:04:51.291Z,42.70
2018-06-03T14:07:19.824Z,45.38
2018-06-03T14:09:48.245Z,44.94
2018-06-03T14:12:17.202Z,44.77
2018-06-03T14:14:45.643Z,44.67
2018-06-03T14:17:14.267Z,44.53
2018-06-03T14:19:42.793Z,43.85
2018-06-03T14:22:11.319Z,44.48
2018-06-03T14:24:39.839Z,44.54
2018-06-03T14:27:08.324Z,43.90
2018-06-03T14:29:36.764Z,44.26
2018-06-03T14:32:05.260Z,44.35
2018-06-03T14:34:33.703Z,43.65
2018-06-03T14:37:02.131Z,44.70
2018-06-03T14:39:30.607Z,45.78
2018-06-03T14:41:59.075Z,43.16
2018-06-03T14:44:27.687Z,43.65
2018-06-03T14:46:56.207Z,41.75
2018-06-03T14:49:24.628Z,42.48
2018-06-03T14:51:53.192Z,42.16
2018-06-03T14:54:21.608Z,42.38
2018-06-03T14:56:50.176Z,43.23
2018-06-03T14:59:21.624Z,43.48
2018-06-03T15:01:50.164Z,44.70
2018-06-03T15:04:18.659Z,43.80
2018-06-03T15:06:47.144Z,42.99
2018-06-03T15:09:15.662Z,42.62
2018-06-03T15:11:44.144Z,41.95
2018-06-03T15:14:12.644Z,42.33
2018-06-03T15:16:41.053Z,43.94
2018-06-03T15:19:09.632Z,43.33
2018-06-03T15:21:38.139Z,44.13
2018-06-03T15:24:06.672Z,43.81
2018-06-03T15:26:35.112Z,43.93
2018-06-03T15:29:03.691Z,44.28
2018-06-03T15:31:32.229Z,43.87
2018-06-03T15:34:00.740Z,43.38
2018-06-03T15:36:29.220Z,42.85
2018-06-03T15:38:57.648Z,42.86
2018-06-03T15:41:26.108Z,40.80
2018-06-03T15:43:54.655Z,40.74
2018-06-03T15:46:23.097Z,42.28
2018-06-03T15:48:51.623Z,41.91
2018-06-03T15:51:20.060Z,43.51
2018-06-03T15:53:48.618Z,42.92
2018-06-03T15:56:17.056Z,43.26
2018-06-03T15:58:45.607Z,44.16
2018-06-03T16:01:14.559Z,42.08
2018-06-03T16:03:42.987Z,41.97
2018-06-03T16:06:11.421Z,43.90
2018-06-03T16:08:39.896Z,42.88
2018-06-03T16:11:08.414Z,41.72
2018-06-03T16:13:36.945Z,43.48
2018-06-03T16:16:05.703Z,43.75
2018-06-03T16:18:34.283Z,43.51
2018-06-03T16:21:02.725Z,43.86
2018-06-03T16:23:31.251Z,43.42
2018-06-03T16:25:59.772Z,43.51
2018-06-03T16:28:28.276Z,41.84
2018-06-03T16:30:56.728Z,42.03
2018-06-03T16:33:25.257Z,41.99
2018-06-03T16:35:53.721Z,43.84
2018-06-03T16:38:22.166Z,42.36
2018-06-03T16:40:50.707Z,42.79
2018-06-03T16:43:19.368Z,42.37
2018-06-03T16:45:47.898Z,40.24
2018-06-03T16:48:16.400Z,40.45
2018-06-03T16:50:44.837Z,41.47
2018-06-03T16:53:13.525Z,43.04
2018-06-03T16:55:42.088Z,43.13
2018-06-03T16:58:10.548Z,43.36
2018-06-03T17:00:39.072Z,42.30
2018-06-03T17:03:07.483Z,42.57
2018-06-03T17:05:35.906Z,42.23
2018-06-03T17:08:04.461Z,42.26
2018-06-03T17:10:32.928Z,44.77
2018-06-03T17:13:01.384Z,43.98
2018-06-03T17:15:29.828Z,45.13
2018-06-03T17:17:58.348Z,43.86
2018-06-03T17:20:26.893Z,45.25
2018-06-03T17:22:55.306Z,44.80
2018-06-03T17:25:23.799Z,45.37
2018-06-03T17:27:52.228Z,44.79
2018-06-03T17:30:20.844Z,44.34
2018-06-03T17:32:49.361Z,44.66
2018-06-03T17:35:17.977Z,42.88
2018-06-03T17:37:46.467Z,44.33
2018-06-03T17:40:14.936Z,45.71
2018-06-03T17:42:43.728Z,44.44
2018-06-03T17:45:12.217Z,44.86
2018-06-03T17:47:40.734Z,45.75
2018-06-03T17:50:09.247Z,45.92
2018-06-03T17:52:37.748Z,47.13
2018-06-03T17:55:06.275Z,47.22
2018-06-03T17:57:34.821Z,46.91
2018-06-03T18:00:03.411Z,47.77
2018-06-03T18:02:32.007Z,48.63
2018-06-03T18:05:00.532Z,48.61
2018-06-03T18:07:29.011Z,48.88
2018-06-03T18:09:57.484Z,48.61
2018-06-03T18:12:25.997Z,49.61
2018-06-03T18:14:54.491Z,49.45
2018-06-03T18:17:22.960Z,50.49
2018-06-03T18:19:51.828Z,51.54
2018-06-03T18:22:20.349Z,51.54
2018-06-03T18:24:48.824Z,52.35
2018-06-03T18:27:17.299Z,52.54
2018-06-03T18:29:45.774Z,52.84
2018-06-03T18:32:14.271Z,54.17
2018-06-03T18:34:42.740Z,54.75
2018-06-03T18:37:11.215Z,54.20
2018-06-03T18:39:39.668Z,54.27
2018-06-03T18:42:08.248Z,54.16
2018-06-03T18:44:36.764Z,54.29
2018-06-03T18:47:05.305Z,56.33
2018-06-03T18:49:33.831Z,57.00
2018-06-03T18:52:02.428Z,56.55
2018-06-03T18:54:30.892Z,56.58
2018-06-03T18:56:59.390Z,56.47
2018-06-03T18:59:27.880Z,57.43
2018-06-03T19:01:56.562Z,58.10
2018-06-03T19:04:24.983Z,58.28
2018-06-03T19:06:53.416Z,58.80
2018-06-03T19:09:21.909Z,58.91
2018-06-03T19:11:50.532Z,59.11
2018-06-03T19:14:19.205Z,58.91
2018-06-03T19:16:47.765Z,59.03
2018-06-03T19:19:16.237Z,60.29
2018-06-03T19:21:44.776Z,59.47
2018-06-03T19:24:13.344Z,58.90
2018-06-03T19:26:41.833Z,59.85
2018-06-03T19:29:10.332Z,60.16
2018-06-03T19:31:39.376Z,60.25
2018-06-03T19:34:07.907Z,60.22
2018-06-03T19:36:36.348Z,60.63
2018-06-03T19:39:06.896Z,59.39
2018-06-03T19:41:35.431Z,59.65
2018-06-03T19:44:03.960Z,60.16
2018-06-03T19:46:32.454Z,60.70
2018-06-03T19:49:00.916Z,59.18
2018-06-03T19:51:29.471Z,59.29
2018-06-03T19:53:58.071Z,58.19
2018-06-03T19:56:26.651Z,59.22
2018-06-03T19:58:55.134Z,58.22
2018-06-03T20:01:23.719Z,59.18
2018-06-03T20:03:52.230Z,59.58
2018-06-03T20:06:20.740Z,60.12
2018-06-03T20:08:49.174Z,58.79
2018-06-03T20:11:17.690Z,60.31
2018-06-03T20:13:46.196Z,60.42
2018-06-03T20:16:14.675Z,60.97
2018-06-03T20:18:43.256Z,60.89
2018-06-03T20:21:12.979Z,61.89
2018-06-03T20:23:41.796Z,62.26
2018-06-03T20:26:11.285Z,61.42
2018-06-03T20:28:39.925Z,60.99
2018-06-03T20:31:08.424Z,60.61
2018-06-03T20:33:36.944Z,60.07
2018-06-03T20:36:05.511Z,62.55
2018-06-03T20:38:33.998Z,65.66
2018-06-03T20:41:02.557Z,65.15
2018-06-03T20:43:31.077Z,66.50
2018-06-03T20:45:59.592Z,66.92
2018-06-03T20:48:28.075Z,67.72
2018-06-03T20:50:56.535Z,67.82
2018-06-03T20:53:25.000Z,68.90
2018-06-03T20:55:53.463Z,68.40
2018-06-03T20:58:21.968Z,69.24
2018-06-03T21:00:50.416Z,69.36
2018-06-03T21:03:18.915Z,69.83
2018-06-03T21:05:47.536Z,70.59
2018-06-03T21:08:16.010Z,68.82
2018-06-03T21:10:44.563Z,66.95
2018-06-03T21:13:13.029Z,67.32
2018-06-03T21:15:41.523Z,67.75
2018-06-03T21:18:09.931Z,67.47
2018-06-03T21:20:38.479Z,67.19
2018-06-03T21:23:06.955Z,68.12
2018-06-03T21:25:35.483Z,69.94
2018-06-03T21:28:04.556Z,69.40
2018-06-03T21:30:33.071Z,70.22
2018-06-03T21:33:01.740Z,69.64
2018-06-03T21:35:30.275Z,68.97
2018-06-03T21:37:58.751Z,70.90
2018-06-03T21:40:27.489Z,70.79
2018-06-03T21:42:55.908Z,72.58
2018-06-03T21:45:24.331Z,73.35
2018-06-03T21:47:52.970Z,75.11
2018-06-03T21:50:21.542Z,74.76
2018-06-03T21:52:50.187Z,74.44
2018-06-03T21:55:18.615Z,72.39
2018-06-03T21:57:47.036Z,73.28
2018-06-03T22:00:15.519Z,73.09
2018-06-03T22:02:44.012Z,71.92
2018-06-03T22:05:12.772Z,71.78
2018-06-03T22:07:41.309Z,73.08
2018-06-03T22:10:09.803Z,72.50
2018-06-03T22:12:38.363Z,74.50
2018-06-03T22:15:07.029Z,75.56
2018-06-03T22:17:35.615Z,74.55
2018-06-03T22:20:04.159Z,75.76
2018-06-03T22:22:32.651Z,76.61
2018-06-03T22:25:01.127Z,76.09
2018-06-03T22:27:29.548Z,75.97
2018-06-03T22:29:58.178Z,77.28
2018-06-03T22:32:26.596Z,77.83
2018-06-03T22:34:55.020Z,77.37
2018-06-03T22:37:23.463Z,78.50
2018-06-03T22:39:51.920Z,78.16
2018-06-03T22:42:20.419Z,80.02
2018-06-03T22:44:48.899Z,78.73
2018-06-03T22:47:17.668Z,78.76
2018-06-03T22:49:46.110Z,78.76
2018-06-03T22:52:14.596Z,78.52
2018-06-03T22:54:43.199Z,79.40
2018-06-03T22:57:53.600Z,78.34
2018-06-03T23:00:30.008Z,77.47
2018-06-03T23:03:03.834Z,78.30
2018-06-03T23:05:32.405Z,79.18
2018-06-03T23:08:00.880Z,78.86
2018-06-03T23:10:29.390Z,78.38
2018-06-03T23:12:57.831Z,81.74
2018-06-03T23:15:26.290Z,79.21
2018-06-03T23:17:54.999Z,81.30
2018-06-03T23:20:23.531Z,81.17
2018-06-03T23:22:52.067Z,79.85
2018-06-03T23:25:20.557Z,81.41
2018-06-03T23:27:49.109Z,80.11
2018-06-03T23:30:17.778Z,78.45
2018-06-03T23:32:46.260Z,79.69
2018-06-03T23:35:14.695Z,80.18
2018-06-03T23:37:43.139Z,78.87
2018-06-03T23:40:11.588Z,79.99
2018-06-03T23:42:40.352Z,79.35
2018-06-03T23:45:08.883Z,79.63
2018-06-03T23:47:37.383Z,79.73
2018-06-03T23:50:05.991Z,81.64
2018-06-03T23:52:34.480Z,80.90
2018-06-03T23:55:03.338Z,81.36
2018-06-03T23:57:31.871Z,79.94
